createdAt,value
2022-12-25T00:00:26.802Z,61.60
2022-12-25T00:05:50.090Z,57.00
2022-12-25T00:11:01.390Z,33.00
2022-12-25T00:16:15.572Z,24.20
2022-12-25T00:21:21.508Z,29.20
2022-12-25T00:26:27.096Z,15.70
2022-12-25T00:31:30.250Z,14.20
2022-12-25T00:36:39.541Z,13.00
2022-12-25T00:42:03.852Z,13.80
2022-12-25T00:47:07.237Z,47.60
2022-12-25T00:52:11.029Z,43.60
2022-12-25T00:57:14.397Z,16.80
2022-12-25T01:02:23.719Z,9.00
2022-12-25T01:07:28.036Z,8.50
2022-12-25T01:12:34.329Z,8.70
2022-12-25T01:17:37.468Z,8.80
2022-12-25T01:22:41.203Z,8.00
2022-12-25T01:27:44.346Z,11.90
2022-12-25T01:32:47.623Z,9.70
2022-12-25T01:37:52.350Z,14.70
2022-12-25T01:42:55.558Z,16.20
2022-12-25T01:48:00.749Z,12.70
2022-12-25T01:53:05.055Z,7.90
2022-12-25T01:58:08.574Z,11.00
2022-12-25T02:03:12.091Z,15.80
2022-12-25T02:08:18.728Z,10.00
2022-12-25T02:13:22.695Z,12.60
2022-12-25T02:18:41.373Z,9.10
2022-12-25T02:29:52.707Z,7.50
2022-12-25T02:35:25.743Z,38.70
2022-12-25T02:40:45.227Z,20.90
2022-12-25T02:46:25.395Z,15.90
2022-12-25T02:51:55.008Z,13.70
2022-12-25T02:57:20.654Z,17.00
2022-12-25T03:02:43.444Z,18.60
2022-12-25T03:07:47.753Z,14.70
2022-12-25T03:13:01.751Z,12.40
2022-12-25T03:18:12.289Z,11.10
2022-12-25T03:23:41.709Z,8.30
2022-12-25T03:28:44.919Z,23.00
2022-12-25T03:34:32.680Z,24.60
2022-12-25T03:40:40.296Z,19.20
2022-12-25T03:46:11.096Z,16.10
2022-12-25T03:51:38.217Z,16.40
2022-12-25T03:57:02.992Z,13.40
2022-12-25T04:02:24.941Z,10.00
2022-12-25T04:20:31.349Z,19.50
2022-12-25T04:26:12.955Z,23.40
2022-12-25T04:31:34.930Z,20.10
2022-12-25T04:36:38.121Z,17.50
2022-12-25T04:41:41.323Z,17.70
2022-12-25T04:46:44.607Z,13.70
2022-12-25T04:51:47.871Z,20.40
2022-12-25T04:56:51.075Z,14.50
2022-12-25T05:01:54.237Z,9.70
2022-12-25T05:06:57.507Z,9.20
2022-12-25T05:12:00.572Z,17.40
2022-12-25T05:17:03.902Z,16.10
2022-12-25T05:22:07.000Z,11.60
2022-12-25T05:27:10.113Z,7.80
2022-12-25T05:32:13.281Z,7.60
2022-12-25T05:37:16.314Z,7.40
2022-12-25T05:42:19.425Z,12.00
2022-12-25T05:47:22.624Z,9.10
2022-12-25T05:52:25.672Z,11.80
2022-12-25T05:57:30.316Z,18.70
2022-12-25T06:02:36.507Z,21.40
2022-12-25T06:07:39.762Z,16.20
2022-12-25T06:12:43.073Z,10.00
2022-12-25T06:17:46.195Z,15.60
2022-12-25T06:22:49.335Z,11.10
2022-12-25T06:27:52.600Z,10.20
2022-12-25T06:32:55.811Z,16.00
2022-12-25T06:37:58.841Z,16.20
2022-12-25T06:43:02.020Z,21.10
2022-12-25T06:48:05.945Z,34.10
2022-12-25T06:53:11.571Z,35.00
2022-12-25T06:58:14.607Z,38.80
2022-12-25T07:03:21.604Z,28.60
2022-12-25T07:08:24.710Z,24.40
2022-12-25T07:13:27.716Z,32.20
2022-12-25T07:18:32.312Z,73.80
2022-12-25T07:23:36.168Z,80.20
2022-12-25T07:28:39.843Z,39.70
2022-12-25T07:33:43.624Z,30.80
2022-12-25T07:38:51.048Z,48.40
2022-12-25T07:43:55.063Z,44.50
2022-12-25T07:48:58.940Z,33.70
2022-12-25T07:54:05.293Z,27.10
2022-12-25T07:59:08.601Z,25.20
2022-12-25T08:04:14.318Z,28.80
2022-12-25T08:09:17.553Z,27.70
2022-12-25T08:14:20.765Z,34.90
2022-12-25T08:19:24.086Z,32.10
2022-12-25T08:24:27.999Z,27.60
2022-12-25T08:29:31.323Z,82.70
2022-12-25T08:34:34.546Z,70.30
2022-12-25T08:39:37.645Z,66.90
2022-12-25T08:44:40.842Z,103.80
2022-12-25T08:49:44.049Z,76.90
2022-12-25T08:54:47.874Z,33.90
2022-12-25T08:59:50.974Z,29.50
2022-12-25T09:04:54.183Z,50.40
2022-12-25T09:09:57.600Z,47.40
2022-12-25T09:15:00.711Z,65.50
2022-12-25T09:20:06.027Z,116.40
2022-12-25T09:25:09.940Z,97.40
2022-12-25T09:30:13.397Z,97.50
2022-12-25T09:35:18.647Z,88.90
2022-12-25T09:40:31.243Z,59.90
2022-12-25T09:45:38.859Z,47.80
2022-12-25T09:50:54.417Z,51.00
2022-12-25T09:56:17.424Z,43.40
2022-12-25T10:01:32.491Z,29.20
2022-12-25T10:06:59.826Z,34.60
2022-12-25T10:12:32.432Z,64.80
2022-12-25T10:17:51.027Z,62.20
2022-12-25T10:28:11.234Z,38.20
2022-12-25T10:33:17.283Z,27.20
2022-12-25T10:38:21.244Z,23.10
2022-12-25T10:43:37.311Z,49.80
2022-12-25T10:48:57.712Z,46.30
2022-12-25T10:54:30.304Z,36.50
2022-12-25T10:59:56.305Z,68.70
2022-12-25T11:05:21.232Z,70.50
2022-12-25T11:10:44.586Z,130.80
2022-12-25T11:15:50.387Z,46.50
2022-12-25T11:21:17.140Z,46.40
2022-12-25T11:26:20.767Z,50.30
2022-12-25T11:31:40.803Z,55.00
2022-12-25T11:36:49.399Z,76.80
2022-12-25T11:42:11.641Z,77.10
2022-12-25T11:47:28.883Z,75.20
2022-12-25T11:52:38.850Z,34.70
2022-12-25T11:57:47.556Z,32.40
2022-12-25T12:08:11.697Z,21.40
2022-12-25T12:13:28.508Z,11.40
2022-12-25T12:18:34.617Z,32.90
2022-12-25T12:24:07.029Z,72.90
2022-12-25T12:29:31.014Z,149.30
2022-12-25T12:34:51.387Z,77.80
2022-12-25T12:39:57.350Z,77.40
2022-12-25T12:45:38.585Z,47.00
2022-12-25T12:50:45.564Z,46.20
2022-12-25T12:55:52.091Z,29.40
2022-12-25T13:01:17.778Z,48.10
2022-12-25T13:06:42.425Z,55.80
2022-12-25T13:11:49.086Z,34.70
2022-12-25T13:16:56.076Z,54.90
2022-12-25T13:22:08.296Z,65.00
2022-12-25T13:27:29.090Z,72.70
2022-12-25T13:32:36.497Z,72.30
2022-12-25T13:37:43.092Z,70.90
2022-12-25T13:42:50.749Z,91.30
2022-12-25T13:47:58.542Z,105.10
2022-12-25T13:53:18.839Z,124.90
2022-12-25T13:58:36.216Z,66.80
2022-12-25T14:03:45.457Z,70.80
2022-12-25T14:08:57.776Z,62.60
2022-12-25T14:14:31.902Z,68.50
2022-12-25T14:19:38.656Z,70.20
2022-12-25T14:24:45.449Z,61.30
2022-12-25T14:29:56.805Z,59.40
2022-12-25T14:35:04.964Z,43.70
2022-12-25T14:40:23.106Z,68.00
2022-12-25T14:45:32.704Z,92.20
2022-12-25T14:50:46.024Z,85.60
2022-12-25T14:55:54.690Z,67.70
2022-12-25T15:01:07.209Z,75.40
2022-12-25T15:06:25.041Z,90.80
2022-12-25T15:11:29.820Z,56.00
2022-12-25T15:16:42.794Z,61.00
2022-12-25T15:21:46.315Z,92.40
2022-12-25T15:26:49.730Z,111.20
2022-12-25T15:31:53.032Z,126.60
2022-12-25T15:36:56.856Z,68.80
2022-12-25T15:42:12.785Z,51.00
2022-12-25T15:47:20.295Z,34.50
2022-12-25T15:52:23.509Z,46.70
2022-12-25T15:57:27.002Z,44.90
2022-12-25T16:02:30.378Z,62.50
2022-12-25T16:07:33.938Z,85.90
2022-12-25T16:12:39.214Z,48.00
2022-12-25T16:17:43.028Z,31.00
2022-12-25T16:22:46.215Z,67.20
2022-12-25T16:27:49.438Z,57.80
2022-12-25T16:32:52.753Z,91.90
2022-12-25T16:37:55.846Z,74.90
2022-12-25T16:42:59.209Z,38.50
2022-12-25T16:48:02.359Z,43.40
2022-12-25T16:53:05.903Z,55.20
2022-12-25T16:58:09.083Z,88.90
2022-12-25T17:03:12.503Z,47.20
2022-12-25T17:08:16.223Z,93.40
2022-12-25T17:13:19.633Z,42.10
2022-12-25T17:18:22.977Z,38.10
2022-12-25T17:23:26.045Z,39.10
2022-12-25T17:28:29.386Z,40.40
2022-12-25T17:33:36.270Z,53.30
2022-12-25T17:38:40.278Z,49.50
2022-12-25T17:43:45.944Z,34.70
2022-12-25T17:48:50.518Z,68.10
2022-12-25T17:53:58.378Z,55.50
2022-12-25T17:59:06.886Z,50.60
2022-12-25T18:04:10.611Z,44.30
2022-12-25T18:09:14.380Z,56.30
2022-12-25T18:14:18.719Z,42.50
2022-12-25T18:19:21.890Z,37.30
2022-12-25T18:24:25.153Z,40.30
2022-12-25T18:29:28.351Z,42.10
2022-12-25T18:34:32.650Z,32.90
2022-12-25T18:39:36.681Z,28.00
2022-12-25T18:44:40.736Z,37.40
2022-12-25T18:49:43.955Z,59.10
2022-12-25T18:54:47.633Z,36.20
2022-12-25T18:59:50.887Z,43.70
2022-12-25T19:04:56.206Z,33.00
2022-12-25T19:09:59.363Z,32.80
2022-12-25T19:15:03.385Z,31.10
2022-12-25T19:20:07.727Z,37.90
2022-12-25T19:25:11.004Z,41.20
2022-12-25T19:30:14.438Z,45.70
2022-12-25T19:35:18.102Z,35.40
2022-12-25T19:40:22.794Z,33.00
2022-12-25T19:45:25.961Z,39.50
2022-12-25T19:50:32.693Z,31.80
2022-12-25T19:55:35.931Z,32.60
2022-12-25T20:00:40.558Z,32.20
2022-12-25T20:05:51.168Z,36.80
2022-12-25T20:10:54.344Z,70.60
2022-12-25T20:16:01.962Z,34.80
2022-12-25T20:21:11.022Z,63.70
2022-12-25T20:26:17.471Z,68.20
2022-12-25T20:31:29.797Z,48.70
2022-12-25T20:36:37.273Z,55.30
2022-12-25T20:41:41.533Z,52.60
2022-12-25T20:46:44.737Z,43.60
2022-12-25T20:51:47.959Z,37.60
2022-12-25T20:56:51.266Z,50.00
2022-12-25T21:01:55.901Z,58.10
2022-12-25T21:07:00.557Z,34.00
2022-12-25T21:12:04.058Z,28.30
2022-12-25T21:17:07.431Z,28.60
2022-12-25T21:22:10.680Z,27.80
2022-12-25T21:27:13.815Z,53.40
2022-12-25T21:32:35.631Z,37.10
2022-12-25T21:37:38.951Z,28.20
2022-12-25T21:42:42.156Z,26.40
2022-12-25T21:47:59.841Z,30.00
2022-12-25T21:53:06.848Z,49.50
2022-12-25T21:58:10.015Z,67.30
2022-12-25T22:03:13.266Z,84.60
2022-12-25T22:08:16.520Z,50.40
2022-12-25T22:13:38.540Z,33.70
2022-12-25T22:19:00.686Z,47.10
2022-12-25T22:24:07.421Z,45.30
2022-12-25T22:29:10.651Z,21.40
2022-12-25T22:34:16.581Z,26.00
2022-12-25T22:39:19.672Z,27.20
2022-12-25T22:44:25.358Z,36.40
2022-12-25T22:49:28.482Z,32.20
2022-12-25T22:54:32.316Z,24.10
2022-12-25T22:59:35.418Z,31.50
2022-12-25T23:04:38.723Z,33.90
2022-12-25T23:09:43.631Z,32.40
2022-12-25T23:14:47.192Z,25.00
2022-12-25T23:20:09.138Z,27.00
2022-12-25T23:25:35.071Z,21.30
2022-12-25T23:30:38.328Z,26.70
2022-12-25T23:35:41.612Z,37.10
2022-12-25T23:40:44.726Z,24.40
2022-12-25T23:45:48.022Z,29.10
2022-12-25T23:50:51.328Z,15.50
2022-12-25T23:55:55.960Z,18.40
